Time,TemperatureF,DewpointF,PressureIn,WindDirection,WindDirectionDegrees,WindSpeedMPH,WindSpeedGustMPH,Humidity,HourlyPrecipIn,Conditions,Clouds,dailyrainin,SoftwareType,DateUTC
2017-09-22 00:00:00,77.5,42.0,29.63,North,0,0.0,-999.0,29,0.00,,,0.00,,2017-09-22 07:00:00,
2017-09-22 00:05:00,77.6,42.0,29.64,North,0,2.0,-999.0,29,0.00,,,0.00,,2017-09-22 07:05:00,
2017-09-22 00:10:00,77.5,40.0,29.64,North,0,1.0,-999.0,27,0.00,,,0.00,,2017-09-22 07:10:00,
2017-09-22 00:15:00,77.6,40.0,29.64,SE,135,4.0,-999.0,25,0.00,,,0.00,,2017-09-22 07:15:00,
2017-09-22 00:20:00,76.8,39.0,29.64,ESE,113,4.0,-999.0,25,0.00,,,0.00,,2017-09-22 07:20:00,
2017-09-22 00:25:00,77.4,40.0,29.64,SSE,158,2.0,-999.0,27,0.00,,,0.00,,2017-09-22 07:25:00,
2017-09-22 00:30:00,78.1,40.0,29.64,SSE,158,4.0,-999.0,25,0.00,,,0.00,,2017-09-22 07:30:00,
2017-09-22 00:36:00,78.4,39.0,29.64,South,180,4.0,-999.0,25,0.00,,,0.00,,2017-09-22 07:36:00,
2017-09-22 00:41:00,78.3,39.0,29.64,South,180,4.0,-999.0,25,0.00,,,0.00,,2017-09-22 07:41:00,
2017-09-22 00:46:00,78.3,40.0,29.64,SSE,158,3.0,-999.0,25,0.00,,,0.00,,2017-09-22 07:46:00,
2017-09-22 00:51:00,78.4,40.0,29.64,South,180,4.0,-999.0,25,0.00,,,0.00,,2017-09-22 07:51:00,
2017-09-22 00:56:00,78.5,43.0,29.64,SW,225,6.0,-999.0,29,0.00,,,0.00,,2017-09-22 07:56:00,
2017-09-22 01:01:00,79.1,45.0,29.64,SW,225,5.0,-999.0,30,0.00,,,0.00,,2017-09-22 08:01:00,
2017-09-22 01:06:00,79.3,46.0,29.64,SW,225,6.0,-999.0,31,0.00,,,0.00,,2017-09-22 08:06:00,
2017-09-22 01:12:00,79.0,47.0,29.64,SW,225,4.0,-999.0,32,0.00,,,0.00,,2017-09-22 08:12:00,
2017-09-22 01:17:00,79.0,47.0,29.64,SSW,203,4.0,-999.0,32,0.00,,,0.00,,2017-09-22 08:17:00,
2017-09-22 01:22:00,78.5,47.0,29.64,SW,225,4.0,-999.0,32,0.00,,,0.00,,2017-09-22 08:22:00,
2017-09-22 01:27:00,78.3,47.0,29.65,South,180,2.0,-999.0,34,0.00,,,0.00,,2017-09-22 08:27:00,
2017-09-22 01:32:00,78.1,47.0,29.65,South,180,0.0,-999.0,34,0.00,,,0.00,,2017-09-22 08:32:00,
2017-09-22 01:37:00,77.5,46.0,29.65,North,0,3.0,-999.0,32,0.00,,,0.00,,2017-09-22 08:37:00,
2017-09-22 01:42:00,77.1,45.0,29.65,ESE,113,3.0,-999.0,31,0.00,,,0.00,,2017-09-22 08:42:00,
2017-09-22 01:47:00,76.9,44.0,29.65,ESE,113,2.0,-999.0,31,0.00,,,0.00,,2017-09-22 08:47:00,
2017-09-22 01:52:00,76.4,43.0,29.65,SE,135,2.0,-999.0,30,0.00,,,0.00,,2017-09-22 08:52:00,
2017-09-22 01:57:00,76.0,43.0,29.65,ESE,113,3.0,-999.0,30,0.00,,,0.00,,2017-09-22 08:57:00,
2017-09-22 02:02:00,76.3,45.0,29.65,SSE,158,3.0,-999.0,34,0.00,,,0.00,,2017-09-22 09:02:00,
2017-09-22 02:07:00,76.5,46.0,29.65,SSE,158,2.0,-999.0,35,0.00,,,0.00,,2017-09-22 09:07:00,
2017-09-22 02:12:00,76.9,47.0,29.64,South,180,4.0,-999.0,35,0.00,,,0.00,,2017-09-22 09:12:00,
2017-09-22 02:17:00,77.1,47.0,29.65,SE,135,5.0,-999.0,35,0.00,,,0.00,,2017-09-22 09:17:00,
2017-09-22 02:22:00,76.5,46.0,29.65,SSE,158,6.0,-999.0,35,0.00,,,0.00,,2017-09-22 09:22:00,
2017-09-22 02:27:00,76.4,46.0,29.65,South,180,4.0,-999.0,35,0.00,,,0.00,,2017-09-22 09:27:00,
2017-09-22 02:32:00,75.9,46.0,29.66,South,180,4.0,-999.0,35,0.00,,,0.00,,2017-09-22 09:32:00,
2017-09-22 02:37:00,75.5,46.0,29.65,SSE,158,2.0,-999.0,35,0.00,,,0.00,,2017-09-22 09:37:00,
2017-09-22 02:42:00,75.3,45.0,29.65,SSE,158,3.0,-999.0,35,0.00,,,0.00,,2017-09-22 09:42:00,
2017-09-22 02:47:00,75.1,45.0,29.65,SSE,158,3.0,-999.0,35,0.00,,,0.00,,2017-09-22 09:47:00,
2017-09-22 02:52:00,74.8,46.0,29.65,SE,135,3.0,-999.0,35,0.00,,,0.00,,2017-09-22 09:52:00,
2017-09-22 02:58:00,74.3,45.0,29.65,ESE,113,2.0,-999.0,35,0.00,,,0.00,,2017-09-22 09:58:00,
2017-09-22 03:03:00,73.5,45.0,29.65,ESE,113,2.0,-999.0,37,0.00,,,0.00,,2017-09-22 10:03:00,
2017-09-22 03:08:00,73.1,46.0,29.65,SSE,158,2.0,-999.0,37,0.00,,,0.00,,2017-09-22 10:08:00,
2017-09-22 03:13:00,73.4,46.0,29.65,SE,135,2.0,-999.0,39,0.00,,,0.00,,2017-09-22 10:13:00,
2017-09-22 03:18:00,74.0,46.0,29.65,South,180,4.0,-999.0,37,0.00,,,0.00,,2017-09-22 10:18:00,
2017-09-22 03:23:00,74.3,47.0,29.65,SSW,203,1.0,-999.0,37,0.00,,,0.00,,2017-09-22 10:23:00,
2017-09-22 03:28:00,73.5,46.0,29.65,SW,225,1.0,-999.0,37,0.00,,,0.00,,2017-09-22 10:28:00,
2017-09-22 03:33:00,74.0,47.0,29.66,South,180,2.0,-999.0,39,0.00,,,0.00,,2017-09-22 10:33:00,
2017-09-22 03:38:00,74.0,47.0,29.66,SSE,158,3.0,-999.0,39,0.00,,,0.00,,2017-09-22 10:38:00,
2017-09-22 03:43:00,73.1,48.0,29.66,SW,225,1.0,-999.0,40,0.00,,,0.00,,2017-09-22 10:43:00,
2017-09-22 03:48:00,72.8,47.0,29.66,SW,225,1.0,-999.0,40,0.00,,,0.00,,2017-09-22 10:48:00,
2017-09-22 03:53:00,72.5,48.0,29.66,SW,225,1.0,-999.0,41,0.00,,,0.00,,2017-09-22 10:53:00,
2017-09-22 03:58:00,72.1,47.0,29.66,SW,225,0.0,-999.0,41,0.00,,,0.00,,2017-09-22 10:58:00,
2017-09-22 04:03:00,71.8,47.0,29.66,SW,225,0.0,-999.0,41,0.00,,,0.00,,2017-09-22 11:03:00,
2017-09-22 04:08:00,71.4,47.0,29.65,SW,225,0.0,-999.0,43,0.00,,,0.00,,2017-09-22 11:08:00,
2017-09-22 04:13:00,70.6,47.0,29.67,SW,225,0.0,-999.0,43,0.00,,,0.00,,2017-09-22 11:13:00,
2017-09-22 04:18:00,70.5,46.0,29.67,SW,225,2.0,-999.0,43,0.00,,,0.00,,2017-09-22 11:18:00,
2017-09-22 04:23:00,70.6,47.0,29.66,SW,225,2.0,-999.0,43,0.00,,,0.00,,2017-09-22 11:23:00,
2017-09-22 04:28:00,70.3,47.0,29.67,SW,225,0.0,-999.0,44,0.00,,,0.00,,2017-09-22 11:28:00,
2017-09-22 04:33:00,70.0,47.0,29.67,SW,225,0.0,-999.0,45,0.00,,,0.00,,2017-09-22 11:33:00,
2017-09-22 04:38:00,70.1,48.0,29.67,SW,225,0.0,-999.0,45,0.00,,,0.00,,2017-09-22 11:38:00,
2017-09-22 04:43:00,70.5,48.0,29.67,SW,225,0.0,-999.0,45,0.00,,,0.00,,2017-09-22 11:43:00,
2017-09-22 04:48:00,70.5,49.0,29.67,SW,225,0.0,-999.0,46,0.00,,,0.00,,2017-09-22 11:48:00,
2017-09-22 04:53:00,70.0,48.0,29.66,SW,225,1.0,-999.0,46,0.00,,,0.00,,2017-09-22 11:53:00,
2017-09-22 04:58:00,70.3,50.0,29.67,SW,225,0.0,-999.0,49,0.00,,,0.00,,2017-09-22 11:58:00,
2017-09-22 05:03:00,70.0,50.0,29.66,SW,225,3.0,-999.0,50,0.00,,,0.00,,2017-09-22 12:03:00,
2017-09-22 05:08:00,71.9,51.0,29.67,SW,225,0.0,-999.0,48,0.00,,,0.00,,2017-09-22 12:08:00,
2017-09-22 05:13:00,70.3,50.0,29.67,SW,225,0.0,-999.0,50,0.00,,,0.00,,2017-09-22 12:13:00,
2017-09-22 05:18:00,72.5,52.0,29.67,SW,225,3.0,-999.0,49,0.00,,,0.00,,2017-09-22 12:18:00,
2017-09-22 05:23:00,72.5,52.0,29.67,SW,225,3.0,-999.0,49,0.00,,,0.00,,2017-09-22 12:23:00,
2017-09-22 05:28:00,72.6,52.0,29.66,SW,225,0.0,-999.0,49,0.00,,,0.00,,2017-09-22 12:28:00,
2017-09-22 05:33:00,71.1,51.0,29.67,SW,225,2.0,-999.0,50,0.00,,,0.00,,2017-09-22 12:33:00,
2017-09-22 05:38:00,71.0,51.0,29.68,SW,225,3.0,-999.0,50,0.00,,,0.00,,2017-09-22 12:38:00,
2017-09-22 05:43:00,71.8,52.0,29.67,SSE,158,3.0,-999.0,50,0.00,,,0.00,,2017-09-22 12:43:00,
2017-09-22 05:48:00,71.9,52.0,29.67,South,180,4.0,-999.0,50,0.00,,,0.00,,2017-09-22 12:48:00,
2017-09-22 05:53:00,71.9,51.0,29.67,ESE,113,3.0,-999.0,48,0.00,,,0.00,,2017-09-22 12:53:00,
2017-09-22 05:58:00,71.8,50.0,29.67,SSE,158,3.0,-999.0,46,0.00,,,0.00,,2017-09-22 12:58:00,
2017-09-22 06:03:00,72.5,49.0,29.67,SSE,158,5.0,-999.0,44,0.00,,,0.00,,2017-09-22 13:03:00,
2017-09-22 06:08:00,72.3,47.0,29.67,SSE,158,6.0,-999.0,41,0.00,,,0.00,,2017-09-22 13:08:00,
2017-09-22 06:13:00,72.1,45.0,29.67,SSE,158,5.0,-999.0,39,0.00,,,0.00,,2017-09-22 13:13:00,
2017-09-22 06:18:00,72.1,45.0,29.67,South,180,5.0,-999.0,37,0.00,,,0.00,,2017-09-22 13:18:00,
2017-09-22 06:23:00,71.9,44.0,29.68,South,180,5.0,-999.0,37,0.00,,,0.00,,2017-09-22 13:23:00,
2017-09-22 06:28:00,71.9,44.0,29.68,South,180,6.0,-999.0,37,0.00,,,0.00,,2017-09-22 13:28:00,
2017-09-22 06:34:00,71.9,44.0,29.68,South,180,3.0,-999.0,37,0.00,,,0.00,,2017-09-22 13:34:00,
2017-09-22 06:39:00,72.8,45.0,29.68,SSE,158,4.0,-999.0,37,0.00,,,0.00,,2017-09-22 13:39:00,
2017-09-22 06:44:00,74.0,46.0,29.68,South,180,3.0,-999.0,37,0.00,,,0.00,,2017-09-22 13:44:00,
2017-09-22 06:49:00,74.4,46.0,29.69,SE,135,4.0,-999.0,37,0.00,,,0.00,,2017-09-22 13:49:00,
2017-09-22 06:54:00,74.4,46.0,29.68,SSE,158,4.0,-999.0,37,0.00,,,0.00,,2017-09-22 13:54:00,
2017-09-22 06:59:00,75.0,46.0,29.68,SE,135,3.0,-999.0,35,0.00,,,0.00,,2017-09-22 13:59:00,
2017-09-22 07:09:00,75.5,46.0,29.68,SSE,158,4.0,-999.0,35,0.00,,,0.00,,2017-09-22 14:09:00,
2017-09-22 07:14:00,76.5,46.0,29.70,SSE,158,2.0,-999.0,35,0.00,,,0.00,,2017-09-22 14:14:00,
2017-09-22 07:19:00,76.9,47.0,29.70,South,180,3.0,-999.0,35,0.00,,,0.00,,2017-09-22 14:19:00,
2017-09-22 07:24:00,77.6,48.0,29.69,SE,135,2.0,-999.0,35,0.00,,,0.00,,2017-09-22 14:24:00,
2017-09-22 07:29:00,78.4,49.0,29.70,SSE,158,3.0,-999.0,35,0.00,,,0.00,,2017-09-22 14:29:00,
2017-09-22 07:34:00,78.5,50.0,29.69,South,180,3.0,-999.0,37,0.00,,,0.00,,2017-09-22 14:34:00,
2017-09-22 07:39:00,78.8,51.0,29.69,SSE,158,2.0,-999.0,39,0.00,,,0.00,,2017-09-22 14:39:00,
2017-09-22 07:44:00,79.3,54.0,29.69,SSE,158,4.0,-999.0,41,0.00,,,0.00,,2017-09-22 14:44:00,
2017-09-22 07:50:00,79.0,55.0,29.69,South,180,4.0,-999.0,44,0.00,,,0.00,,2017-09-22 14:50:00,
2017-09-22 07:55:00,79.3,55.0,29.69,SSW,203,3.0,-999.0,44,0.00,,,0.00,,2017-09-22 14:55:00,
2017-09-22 08:00:00,79.1,55.0,29.69,WSW,248,4.0,-999.0,44,0.00,,,0.00,,2017-09-22 15:00:00,
2017-09-22 08:05:00,78.8,55.0,29.70,West,270,4.0,-999.0,45,0.00,,,0.00,,2017-09-22 15:05:00,
2017-09-22 08:10:00,78.3,54.0,29.69,SW,225,4.0,-999.0,44,0.00,,,0.00,,2017-09-22 15:10:00,
2017-09-22 08:15:00,78.5,54.0,29.70,WNW,293,4.0,-999.0,44,0.00,,,0.00,,2017-09-22 15:15:00,
2017-09-22 08:20:00,78.5,54.0,29.70,WSW,248,3.0,-999.0,44,0.00,,,0.00,,2017-09-22 15:20:00,
2017-09-22 08:25:00,78.4,55.0,29.70,WSW,248,4.0,-999.0,45,0.00,,,0.00,,2017-09-22 15:25:00,
2017-09-22 08:30:00,78.3,55.0,29.70,SW,225,4.0,-999.0,45,0.00,,,0.00,,2017-09-22 15:30:00,
2017-09-22 08:35:00,78.5,54.0,29.70,WSW,248,3.0,-999.0,44,0.00,,,0.00,,2017-09-22 15:35:00,
2017-09-22 08:40:00,80.3,55.0,29.70,SW,225,1.0,-999.0,43,0.00,,,0.00,,2017-09-22 15:40:00,
2017-09-22 08:45:00,81.0,55.0,29.70,WSW,248,2.0,-999.0,41,0.00,,,0.00,,2017-09-22 15:45:00,
2017-09-22 08:50:00,80.7,55.0,29.70,SW,225,0.0,-999.0,41,0.00,,,0.00,,2017-09-22 15:50:00,
2017-09-22 08:55:00,82.1,58.0,29.70,SSE,158,5.0,-999.0,44,0.00,,,0.00,,2017-09-22 15:55:00,
2017-09-22 09:00:00,81.7,57.0,29.70,SE,135,4.0,-999.0,44,0.00,,,0.00,,2017-09-22 16:00:00,
2017-09-22 09:05:00,81.9,58.0,29.71,SE,135,3.0,-999.0,45,0.00,,,0.00,,2017-09-22 16:05:00,
2017-09-22 09:10:00,82.1,58.0,29.71,ESE,113,6.0,-999.0,45,0.00,,,0.00,,2017-09-22 16:10:00,
2017-09-22 09:15:00,80.7,58.0,29.71,SSW,203,6.0,-999.0,45,0.00,,,0.00,,2017-09-22 16:15:00,
2017-09-22 09:20:00,81.0,57.0,29.71,SW,225,1.0,-999.0,45,0.00,,,0.00,,2017-09-22 16:20:00,
2017-09-22 09:25:00,82.8,58.0,29.72,SW,225,5.0,-999.0,44,0.00,,,0.00,,2017-09-22 16:25:00,
2017-09-22 09:30:00,82.3,58.0,29.71,ESE,113,3.0,-999.0,44,0.00,,,0.00,,2017-09-22 16:30:00,
2017-09-22 09:35:00,81.4,58.0,29.71,SW,225,6.0,-999.0,45,0.00,,,0.00,,2017-09-22 16:35:00,
2017-09-22 09:40:00,82.3,59.0,29.71,SSE,158,4.0,-999.0,45,0.00,,,0.00,,2017-09-22 16:40:00,
2017-09-22 09:45:00,81.9,58.0,29.71,SSE,158,8.0,-999.0,45,0.00,,,0.00,,2017-09-22 16:45:00,
2017-09-22 09:50:00,82.8,59.0,29.71,SSW,203,6.0,-999.0,45,0.00,,,0.00,,2017-09-22 16:50:00,
2017-09-22 09:55:00,82.6,59.0,29.72,South,180,4.0,-999.0,45,0.00,,,0.00,,2017-09-22 16:55:00,
2017-09-22 10:00:00,82.8,59.0,29.72,SSE,158,5.0,-999.0,45,0.00,,,0.00,,2017-09-22 17:00:00,
2017-09-22 10:05:00,83.9,59.0,29.71,South,180,4.0,-999.0,44,0.00,,,0.00,,2017-09-22 17:05:00,
2017-09-22 10:10:00,83.0,58.0,29.72,SSE,158,4.0,-999.0,44,0.00,,,0.00,,2017-09-22 17:10:00,
2017-09-22 10:15:00,83.9,59.0,29.71,SSW,203,9.0,-999.0,43,0.00,,,0.00,,2017-09-22 17:15:00,
2017-09-22 10:20:00,83.8,58.0,29.71,West,270,6.0,-999.0,41,0.00,,,0.00,,2017-09-22 17:20:00,
2017-09-22 10:25:00,83.6,58.0,29.72,NW,315,4.0,-999.0,41,0.00,,,0.00,,2017-09-22 17:25:00,
2017-09-22 10:30:00,83.6,58.0,29.71,NW,315,4.0,-999.0,43,0.00,,,0.00,,2017-09-22 17:30:00,
2017-09-22 10:35:00,83.0,58.0,29.71,SW,225,4.0,-999.0,43,0.00,,,0.00,,2017-09-22 17:35:00,
2017-09-22 10:40:00,83.0,58.0,29.71,SW,225,2.0,-999.0,43,0.00,,,0.00,,2017-09-22 17:40:00,
2017-09-22 10:45:00,84.2,58.0,29.71,ESE,113,1.0,-999.0,41,0.00,,,0.00,,2017-09-22 17:45:00,
2017-09-22 10:50:00,83.9,58.0,29.71,South,180,2.0,-999.0,41,0.00,,,0.00,,2017-09-22 17:50:00,
2017-09-22 10:55:00,85.5,59.0,29.70,West,270,6.0,-999.0,41,0.00,,,0.00,,2017-09-22 17:55:00,
2017-09-22 11:00:00,85.7,59.0,29.72,West,270,3.0,-999.0,40,0.00,,,0.00,,2017-09-22 18:00:00,
2017-09-22 11:05:00,85.5,59.0,29.69,NW,315,6.0,-999.0,40,0.00,,,0.00,,2017-09-22 18:05:00,
2017-09-22 11:10:00,82.6,57.0,29.70,West,270,2.0,-999.0,43,0.00,,,0.00,,2017-09-22 18:10:00,
2017-09-22 11:15:00,81.7,57.0,29.70,ESE,113,2.0,-999.0,44,0.00,,,0.00,,2017-09-22 18:15:00,
2017-09-22 11:20:00,82.1,58.0,29.70,West,270,6.0,-999.0,44,0.00,,,0.00,,2017-09-22 18:20:00,
2017-09-22 11:25:00,81.4,58.0,29.70,WNW,293,3.0,-999.0,45,0.00,,,0.00,,2017-09-22 18:25:00,
2017-09-22 11:30:00,81.9,58.0,29.70,WSW,248,3.0,-999.0,45,0.00,,,0.00,,2017-09-22 18:30:00,
2017-09-22 11:35:00,85.3,58.0,29.70,ESE,113,2.0,-999.0,40,0.00,,,0.00,,2017-09-22 18:35:00,
2017-09-22 11:40:00,85.1,59.0,29.69,West,270,2.0,-999.0,41,0.00,,,0.00,,2017-09-22 18:40:00,
2017-09-22 11:45:00,83.6,58.0,29.69,West,270,6.0,-999.0,43,0.00,,,0.00,,2017-09-22 18:45:00,
2017-09-22 11:50:00,83.9,59.0,29.69,East,90,3.0,-999.0,43,0.00,,,0.00,,2017-09-22 18:50:00,
2017-09-22 11:55:00,83.0,58.0,29.69,NNW,338,6.0,-999.0,43,0.00,,,0.00,,2017-09-22 18:55:00,
2017-09-22 12:00:00,84.6,58.0,29.68,WNW,293,6.0,-999.0,41,0.00,,,0.00,,2017-09-22 19:00:00,
2017-09-22 12:05:00,83.2,58.0,29.69,WNW,293,7.0,-999.0,43,0.00,,,0.00,,2017-09-22 19:05:00,
2017-09-22 12:10:00,82.6,58.0,29.69,West,270,5.0,-999.0,44,0.00,,,0.00,,2017-09-22 19:10:00,
2017-09-22 12:15:00,82.1,57.0,29.69,NNE,23,4.0,-999.0,43,0.00,,,0.00,,2017-09-22 19:15:00,
2017-09-22 12:20:00,83.8,58.0,29.68,West,270,5.0,-999.0,43,0.00,,,0.00,,2017-09-22 19:20:00,
2017-09-22 12:25:00,83.2,58.0,29.69,West,270,5.0,-999.0,43,0.00,,,0.00,,2017-09-22 19:25:00,
2017-09-22 12:30:00,82.8,58.0,29.69,WNW,293,5.0,-999.0,43,0.00,,,0.00,,2017-09-22 19:30:00,
2017-09-22 12:35:00,82.8,58.0,29.68,WNW,293,3.0,-999.0,43,0.00,,,0.00,,2017-09-22 19:35:00,
2017-09-22 12:40:00,84.6,58.0,29.68,NW,315,3.0,-999.0,40,0.00,,,0.00,,2017-09-22 19:40:00,
2017-09-22 12:45:00,85.5,59.0,29.67,ENE,68,2.0,-999.0,40,0.00,,,0.00,,2017-09-22 19:45:00,
2017-09-22 12:50:00,83.9,58.0,29.67,NW,315,3.0,-999.0,41,0.00,,,0.00,,2017-09-22 19:50:00,
2017-09-22 12:53:00,83.9,58.0,29.67,NNW,338,4.0,-999.0,41,0.00,,,0.00,,2017-09-22 19:53:00,
2017-09-22 12:58:00,86.1,59.0,29.67,WNW,293,3.0,-999.0,40,0.00,,,0.00,,2017-09-22 19:58:00,
2017-09-22 13:03:00,86.4,59.0,29.67,West,270,3.0,-999.0,40,0.00,,,0.00,,2017-09-22 20:03:00,
2017-09-22 13:08:00,87.1,58.0,29.66,WNW,293,2.0,-999.0,37,0.00,,,0.00,,2017-09-22 20:08:00,
2017-09-22 13:13:00,88.0,59.0,29.67,SSE,158,3.0,-999.0,37,0.00,,,0.00,,2017-09-22 20:13:00,
2017-09-22 13:18:00,87.8,59.0,29.66,West,270,3.0,-999.0,37,0.00,,,0.00,,2017-09-22 20:18:00,
2017-09-22 13:23:00,87.8,58.0,29.66,WNW,293,4.0,-999.0,37,0.00,,,0.00,,2017-09-22 20:23:00,
2017-09-22 13:28:00,88.5,58.0,29.65,ESE,113,0.0,-999.0,35,0.00,,,0.00,,2017-09-22 20:28:00,
2017-09-22 13:33:00,88.9,58.0,29.65,East,90,3.0,-999.0,35,0.00,,,0.00,,2017-09-22 20:33:00,
2017-09-22 13:38:00,90.1,57.0,29.66,NW,315,4.0,-999.0,34,0.00,,,0.00,,2017-09-22 20:38:00,
2017-09-22 13:43:00,90.6,58.0,29.66,West,270,7.0,-999.0,34,0.00,,,0.00,,2017-09-22 20:43:00,
2017-09-22 13:48:00,88.9,57.0,29.65,SW,225,4.0,-999.0,35,0.00,,,0.00,,2017-09-22 20:48:00,
2017-09-22 13:50:00,88.2,57.0,29.65,West,270,3.0,-999.0,35,0.00,,,0.00,,2017-09-22 20:50:00,
2017-09-22 13:55:00,88.5,56.0,29.65,NNW,338,5.0,-999.0,34,0.00,,,0.00,,2017-09-22 20:55:00,
2017-09-22 14:00:00,88.6,56.0,29.65,SW,225,2.0,-999.0,34,0.00,,,0.00,,2017-09-22 21:00:00,
2017-09-22 14:05:00,90.3,57.0,29.64,NW,315,8.0,-999.0,32,0.00,,,0.00,,2017-09-22 21:05:00,
2017-09-22 14:10:00,88.5,56.0,29.64,West,270,8.0,-999.0,34,0.00,,,0.00,,2017-09-22 21:10:00,
2017-09-22 14:15:00,88.2,56.0,29.64,NNW,338,3.0,-999.0,34,0.00,,,0.00,,2017-09-22 21:15:00,
2017-09-22 14:20:00,89.4,55.0,29.65,NNW,338,4.0,-999.0,31,0.00,,,0.00,,2017-09-22 21:20:00,
2017-09-22 14:25:00,89.8,55.0,29.63,WSW,248,9.0,-999.0,30,0.00,,,0.00,,2017-09-22 21:25:00,
2017-09-22 14:30:00,89.6,55.0,29.64,West,270,3.0,-999.0,31,0.00,,,0.00,,2017-09-22 21:30:00,
2017-09-22 14:35:00,89.6,54.0,29.63,WNW,293,2.0,-999.0,30,0.00,,,0.00,,2017-09-22 21:35:00,
2017-09-22 14:40:00,90.0,54.0,29.63,ENE,68,5.0,-999.0,30,0.00,,,0.00,,2017-09-22 21:40:00,
2017-09-22 14:45:00,90.6,53.0,29.63,West,270,7.0,-999.0,27,0.00,,,0.00,,2017-09-22 21:45:00,
2017-09-22 14:50:00,89.6,52.0,29.62,WSW,248,4.0,-999.0,27,0.00,,,0.00,,2017-09-22 21:50:00,
2017-09-22 14:55:00,89.6,53.0,29.62,West,270,6.0,-999.0,29,0.00,,,0.00,,2017-09-22 21:55:00,
2017-09-22 15:00:00,90.6,54.0,29.63,SW,225,5.0,-999.0,29,0.00,,,0.00,,2017-09-22 22:00:00,
2017-09-22 15:05:00,90.0,53.0,29.62,WNW,293,5.0,-999.0,29,0.00,,,0.00,,2017-09-22 22:05:00,
2017-09-22 15:10:00,89.2,52.0,29.62,West,270,4.0,-999.0,29,0.00,,,0.00,,2017-09-22 22:10:00,
2017-09-22 15:15:00,90.1,53.0,29.61,SW,225,5.0,-999.0,29,0.00,,,0.00,,2017-09-22 22:15:00,
2017-09-22 15:20:00,89.6,54.0,29.62,West,270,11.0,-999.0,30,0.00,,,0.00,,2017-09-22 22:20:00,
2017-09-22 15:25:00,90.6,54.0,29.61,West,270,8.0,-999.0,29,0.00,,,0.00,,2017-09-22 22:25:00,
2017-09-22 15:30:00,89.8,54.0,29.62,WSW,248,7.0,-999.0,30,0.00,,,0.00,,2017-09-22 22:30:00,
2017-09-22 15:35:00,87.3,53.0,29.63,WNW,293,5.0,-999.0,31,0.00,,,0.00,,2017-09-22 22:35:00,
2017-09-22 15:40:00,88.6,54.0,29.61,WSW,248,3.0,-999.0,30,0.00,,,0.00,,2017-09-22 22:40:00,
2017-09-22 15:46:00,89.0,53.0,29.62,WSW,248,10.0,-999.0,30,0.00,,,0.00,,2017-09-22 22:46:00,
2017-09-22 15:51:00,88.9,53.0,29.61,NW,315,8.0,-999.0,30,0.00,,,0.00,,2017-09-22 22:51:00,
2017-09-22 15:56:00,89.0,53.0,29.60,West,270,9.0,-999.0,30,0.00,,,0.00,,2017-09-22 22:56:00,
2017-09-22 16:01:00,88.6,53.0,29.60,West,270,5.0,-999.0,30,0.00,,,0.00,,2017-09-22 23:01:00,
2017-09-22 16:06:00,88.6,53.0,29.61,West,270,9.0,-999.0,30,0.00,,,0.00,,2017-09-22 23:06:00,
2017-09-22 16:11:00,89.2,53.0,29.61,WNW,293,7.0,-999.0,30,0.00,,,0.00,,2017-09-22 23:11:00,
2017-09-22 16:16:00,88.5,53.0,29.61,NNW,338,6.0,-999.0,30,0.00,,,0.00,,2017-09-22 23:16:00,
2017-09-22 16:21:00,88.5,53.0,29.61,WNW,293,9.0,-999.0,30,0.00,,,0.00,,2017-09-22 23:21:00,
2017-09-22 16:26:00,88.6,53.0,29.60,West,270,11.0,-999.0,30,0.00,,,0.00,,2017-09-22 23:26:00,
2017-09-22 16:31:00,88.5,52.0,29.61,SW,225,7.0,-999.0,29,0.00,,,0.00,,2017-09-22 23:31:00,
2017-09-22 16:36:00,88.1,51.0,29.60,West,270,8.0,-999.0,29,0.00,,,0.00,,2017-09-22 23:36:00,
2017-09-22 16:42:00,87.3,51.0,29.61,NW,315,9.0,-999.0,29,0.00,,,0.00,,2017-09-22 23:42:00,
2017-09-22 16:47:00,87.8,51.0,29.60,West,270,4.0,-999.0,29,0.00,,,0.00,,2017-09-22 23:47:00,
2017-09-22 16:52:00,87.8,50.0,29.60,West,270,8.0,-999.0,27,0.00,,,0.00,,2017-09-22 23:52:00,
2017-09-22 16:57:00,87.3,50.0,29.60,WNW,293,8.0,-999.0,27,0.00,,,0.00,,2017-09-22 23:57:00,
2017-09-22 17:02:00,87.3,50.0,29.60,WNW,293,7.0,-999.0,27,0.00,,,0.00,,2017-09-23 00:02:00,
2017-09-22 17:07:00,86.9,49.0,29.60,WNW,293,5.0,-999.0,27,0.00,,,0.00,,2017-09-23 00:07:00,
2017-09-22 17:12:00,87.1,50.0,29.60,West,270,5.0,-999.0,29,0.00,,,0.00,,2017-09-23 00:12:00,
2017-09-22 17:17:00,86.4,50.0,29.60,West,270,5.0,-999.0,29,0.00,,,0.00,,2017-09-23 00:17:00,
2017-09-22 17:22:00,86.7,49.0,29.59,West,270,8.0,-999.0,27,0.00,,,0.00,,2017-09-23 00:22:00,
2017-09-22 17:27:00,86.0,49.0,29.60,WNW,293,5.0,-999.0,27,0.00,,,0.00,,2017-09-23 00:27:00,
2017-09-22 17:32:00,86.1,49.0,29.60,West,270,7.0,-999.0,27,0.00,,,0.00,,2017-09-23 00:32:00,
2017-09-22 17:37:00,85.5,48.0,29.60,WNW,293,5.0,-999.0,27,0.00,,,0.00,,2017-09-23 00:37:00,
2017-09-22 17:43:00,85.1,48.0,29.60,NW,315,6.0,-999.0,27,0.00,,,0.00,,2017-09-23 00:43:00,
2017-09-22 17:48:00,85.1,48.0,29.59,West,270,7.0,-999.0,27,0.00,,,0.00,,2017-09-23 00:48:00,
2017-09-22 17:53:00,84.6,47.0,29.59,WNW,293,9.0,-999.0,27,0.00,,,0.00,,2017-09-23 00:53:00,
2017-09-22 17:58:00,84.2,47.0,29.59,West,270,6.0,-999.0,27,0.00,,,0.00,,2017-09-23 00:58:00,
2017-09-22 18:03:00,83.9,48.0,29.59,West,270,10.0,-999.0,29,0.00,,,0.00,,2017-09-23 01:03:00,
2017-09-22 18:08:00,83.8,48.0,29.59,SW,225,6.0,-999.0,29,0.00,,,0.00,,2017-09-23 01:08:00,
2017-09-22 18:13:00,83.5,47.0,29.59,SW,225,5.0,-999.0,29,0.00,,,0.00,,2017-09-23 01:13:00,